Time;durP1;ratioP1;P1;durP2;ratioP2;P2;SDS_P1;SDS_P2;PMS_P1;PMS_P2;Temp;Humidity;BMP_temperature;BMP_pressure;BME280_temperature;BME280_humidity;BME280_pressure;Samples;Min_cycle;Max_cycle;Signal;HPM_P1;HPM_P2
2020/12/05 00:01:58;;;;;;;9.10;8.20;;;4.00;93.60;;;;;;5028700;28;20080;-80
2020/12/05 00:04:23;;;;;;;10.75;8.50;;;3.50;93.60;;;;;;5011926;28;20197;-81
2020/12/05 00:06:49;;;;;;;9.57;8.23;;;4.10;93.80;;;;;;5012402;28;20034;-81
2020/12/05 00:09:15;;;;;;;9.75;8.13;;;;;;;;;;5012008;28;20055;-81
2020/12/05 00:11:40;;;;;;;8.95;8.13;;;4.80;97.00;;;;;;5028510;28;20106;-81
2020/12/05 00:14:06;;;;;;;8.40;7.50;;;4.00;93.50;;;;;;5011871;28;20021;-81
2020/12/05 00:16:32;;;;;;;11.52;9.68;;;3.20;93.20;;;;;;5028261;28;20376;-81
2020/12/05 00:18:57;;;;;;;13.13;11.27;;;3.20;98.60;;;;;;5028366;28;20025;-81
2020/12/05 00:21:23;;;;;;;14.50;11.23;;;3.60;92.70;;;;;;5027234;28;20056;-81
2020/12/05 00:23:50;;;;;;;14.57;12.05;;;4.20;97.80;;;;;;5027421;28;20515;-81
2020/12/05 00:26:19;;;;;;;16.15;12.93;;;3.00;91.80;;;;;;5011625;28;20144;-81
2020/12/05 00:28:46;;;;;;;16.65;12.48;;;3.60;91.80;;;;;;5011978;28;20372;-80
2020/12/05 00:31:15;;;;;;;15.65;13.25;;;3.10;91.70;;;;;;5011949;28;20127;-81
2020/12/05 00:33:41;;;;;;;16.58;12.43;;;;;;;;;;4995074;28;20159;-81
2020/12/05 00:36:08;;;;;;;14.98;11.30;;;2.60;95.00;;;;;;5024665;28;20025;-80
2020/12/05 00:38:34;;;;;;;13.32;11.85;;;2.40;92.10;;;;;;5027603;28;20048;-80
2020/12/05 00:41:03;;;;;;;15.95;11.50;;;2.90;92.30;;;;;;5028153;28;20036;-80
2020/12/05 00:43:32;;;;;;;15.30;11.50;;;1.90;99.70;;;;;;5027539;28;20021;-80
2020/12/05 00:45:58;;;;;;;15.88;11.57;;;;;;;;;;5011639;28;20029;-80
2020/12/05 00:48:23;;;;;;;15.00;11.55;;;2.10;96.30;;;;;;5028101;28;20515;-80
2020/12/05 00:50:49;;;;;;;18.58;13.25;;;2.10;93.10;;;;;;5011526;28;20052;-80
2020/12/05 00:53:15;;;;;;;14.88;11.65;;;3.40;93.50;;;;;;5011553;28;20026;-80
2020/12/05 00:55:43;;;;;;;13.98;11.25;;;3.50;93.70;;;;;;4994981;28;20142;-80
2020/12/05 00:58:09;;;;;;;12.23;10.60;;;;;;;;;;5011370;28;20051;-80
2020/12/05 01:00:35;;;;;;;14.40;11.38;;;1.80;99.90;;;;;;5011164;28;20116;-80
2020/12/05 01:03:00;;;;;;;12.75;10.63;;;2.40;93.30;;;;;;5011510;28;20414;-80
2020/12/05 01:05:26;;;;;;;15.57;10.70;;;3.10;93.70;;;;;;5011281;28;20037;-80
2020/12/05 01:07:51;;;;;;;14.55;11.40;;;1.90;93.10;;;;;;5011480;28;20029;-80
2020/12/05 01:10:17;;;;;;;16.15;12.55;;;;;;;;;;5028764;28;20026;-80
2020/12/05 01:12:43;;;;;;;15.25;12.07;;;;;;;;;;5028700;28;20040;-80
2020/12/05 01:15:09;;;;;;;14.07;12.05;;;1.90;92.60;;;;;;5028596;28;20030;-80
2020/12/05 01:17:35;;;;;;;17.05;12.70;;;2.60;93.50;;;;;;5027498;28;20360;-80
2020/12/05 01:20:05;;;;;;;13.00;10.80;;;2.60;93.50;;;;;;5027292;28;20455;-80
2020/12/05 01:22:31;;;;;;;16.58;11.68;;;;;;;;;;5027504;28;20305;-80
2020/12/05 01:24:57;;;;;;;15.32;11.20;;;1.90;96.90;;;;;;5028887;28;20186;-80
2020/12/05 01:27:22;;;;;;;14.68;11.13;;;3.30;93.60;;;;;;5010913;28;20049;-80
2020/12/05 01:29:48;;;;;;;14.05;11.70;;;1.90;93.20;;;;;;5010842;28;20069;-80
2020/12/05 01:32:13;;;;;;;14.35;11.13;;;3.30;93.60;;;;;;5027405;28;20029;-80
2020/12/05 01:34:39;;;;;;;16.30;12.52;;;;;;;;;;5027264;28;20025;-80
2020/12/05 01:37:05;;;;;;;13.73;10.57;;;1.70;96.90;;;;;;5027419;28;20463;-80
2020/12/05 01:39:31;;;;;;;13.35;10.77;;;2.00;93.60;;;;;;5010935;28;20039;-79
2020/12/05 01:41:56;;;;;;;13.02;10.73;;;2.40;93.70;;;;;;5010865;28;20034;-79
2020/12/05 01:44:22;;;;;;;13.90;11.90;;;1.90;93.50;;;;;;5027010;28;20029;-79
2020/12/05 01:46:48;;;;;;;13.25;11.23;;;3.10;93.80;;;;;;5027172;28;20021;-80
2020/12/05 01:49:16;;;;;;;15.93;11.48;;;3.30;94.50;;;;;;5010971;28;20104;-79
2020/12/05 01:51:41;;;;;;;16.55;12.88;;;1.70;93.40;;;;;;5027391;28;20538;-79
2020/12/05 01:54:07;;;;;;;14.02;11.43;;;3.50;94.10;;;;;;4994354;28;20140;-80
2020/12/05 01:56:33;;;;;;;14.75;11.50;;;1.50;99.90;;;;;;4994586;28;20041;-80
2020/12/05 01:58:59;;;;;;;14.02;11.75;;;2.00;93.80;;;;;;5026995;28;20028;-80
2020/12/05 02:01:27;;;;;;;14.07;11.02;;;1.90;93.80;;;;;;5010732;28;20032;-80
2020/12/05 02:03:56;;;;;;;13.60;11.57;;;3.90;94.30;;;;;;5010623;28;20410;-80
2020/12/05 02:06:34;;;;;;;16.05;11.80;;;1.60;93.60;;;;;;5010701;28;20065;-80
2020/12/05 02:09:03;;;;;;;15.55;11.32;;;1.60;99.90;;;;;;5028460;28;20030;-80
2020/12/05 02:11:31;;;;;;;17.40;13.43;;;3.00;94.10;;;;;;5012355;28;20044;-80
2020/12/05 02:13:58;;;;;;;16.42;12.50;;;3.40;94.20;;;;;;5014606;28;20507;-80
2020/12/05 02:16:24;;;;;;;18.13;12.48;;;3.00;94.00;;;;;;5014512;28;20391;-80
2020/12/05 02:18:50;;;;;;;15.90;12.95;;;1.50;93.80;;;;;;5014154;28;20022;-79
2020/12/05 02:21:16;;;;;;;14.30;11.48;;;3.30;94.00;;;;;;5014175;28;20028;-80
2020/12/05 02:23:43;;;;;;;12.45;10.40;;;1.70;94.00;;;;;;5014149;28;20029;-80
2020/12/05 02:26:09;;;;;;;12.77;10.13;;;3.40;94.10;;;;;;5013852;28;20026;-80
2020/12/05 02:28:34;;;;;;;12.30;9.55;;;2.60;93.90;;;;;;4997331;28;20053;-80
2020/12/05 02:31:00;;;;;;;12.98;10.20;;;1.50;99.90;;;;;;5013942;28;20344;-80
2020/12/05 02:33:26;;;;;;;11.57;9.40;;;1.60;93.80;;;;;;5014008;28;20033;-79
2020/12/05 02:35:51;;;;;;;12.63;10.40;;;1.50;99.90;;;;;;5013769;28;20053;-79
2020/12/05 02:38:20;;;;;;;11.88;10.10;;;2.60;94.20;;;;;;5030079;28;20092;-79
2020/12/05 02:40:46;;;;;;;11.98;9.82;;;;;;;;;;4997247;28;20455;-80
2020/12/05 02:43:12;;;;;;;12.35;10.15;;;1.60;99.90;;;;;;5031648;28;20460;-80
2020/12/05 02:45:39;;;;;;;12.15;9.90;;;2.60;94.10;;;;;;4997067;28;20079;-80
2020/12/05 02:48:05;;;;;;;12.70;10.25;;;1.80;93.90;;;;;;5013738;28;20534;-79
2020/12/05 02:50:31;;;;;;;12.27;10.38;;;3.40;94.20;;;;;;5029902;28;20036;-79
2020/12/05 02:52:57;;;;;;;11.40;9.63;;;3.00;94.30;;;;;;5013663;28;20030;-79
2020/12/05 02:55:22;;;;;;;12.73;10.63;;;1.30;99.90;;;;;;5029728;28;20060;-79
2020/12/05 02:57:48;;;;;;;13.60;10.45;;;2.70;94.60;;;;;;5013543;28;20017;-79
2020/12/05 03:00:14;;;;;;;10.23;9.15;;;3.30;94.80;;;;;;5013273;28;20029;-80
2020/12/05 03:02:40;;;;;;;10.95;9.43;;;2.20;94.40;;;;;;5013221;28;20204;-79
2020/12/05 03:05:05;;;;;;;10.93;9.45;;;1.60;94.10;;;;;;4996944;28;20030;-79
2020/12/05 03:07:31;;;;;;;11.52;9.50;;;1.40;99.90;;;;;;5031051;28;20033;-80
2020/12/05 03:09:56;;;;;;;10.80;9.70;;;1.60;93.80;;;;;;5012956;28;20037;-80
2020/12/05 03:12:22;;;;;;;10.82;8.77;;;3.40;94.40;;;;;;4996958;28;20112;-80
2020/12/05 03:14:48;;;;;;;10.45;8.52;;;2.40;94.20;;;;;;5013273;28;20406;-80
2020/12/05 03:17:13;;;;;;;9.70;8.65;;;2.90;94.50;;;;;;5029471;28;20036;-79
2020/12/05 03:19:39;;;;;;;11.52;8.52;;;1.50;99.90;;;;;;5013250;28;20052;-80
2020/12/05 03:22:04;;;;;;;8.80;7.90;;;3.50;94.60;;;;;;5029998;28;20033;-80
2020/12/05 03:24:30;;;;;;;10.43;8.82;;;2.90;94.80;;;;;;5012285;28;20451;-80
2020/12/05 03:26:56;;;;;;;10.05;8.60;;;3.10;94.80;;;;;;5030659;28;20056;-80
2020/12/05 03:29:21;;;;;;;8.43;7.50;;;2.50;94.70;;;;;;5029350;28;20021;-80
2020/12/05 03:34:13;;;;;;;8.88;7.28;;;2.60;94.50;;;;;;5030695;28;20038;-80
2020/12/05 03:36:38;;;;;;;7.57;6.70;;;1.30;94.30;;;;;;5012477;28;20386;-80
2020/12/05 03:39:04;;;;;;;8.73;7.45;;;3.20;94.90;;;;;;5012551;28;20029;-80
2020/12/05 03:41:30;;;;;;;8.18;7.28;;;2.60;94.80;;;;;;4996411;28;20473;-80
2020/12/05 03:43:56;;;;;;;9.80;8.23;;;1.70;99.90;;;;;;4996224;28;20064;-80
2020/12/05 03:46:21;;;;;;;8.40;7.50;;;3.30;99.90;;;;;;5028957;28;20411;-80
2020/12/05 03:48:47;;;;;;;10.35;8.38;;;2.50;94.60;;;;;;5028720;28;20589;-81
2020/12/05 03:51:13;;;;;;;9.80;8.80;;;;;;;;;;5029971;28;20045;-80
2020/12/05 03:53:38;;;;;;;9.50;7.95;;;2.00;94.00;;;;;;5028844;28;20021;-80
2020/12/05 03:56:04;;;;;;;8.30;7.30;;;1.30;99.90;;;;;;5012365;28;20371;-81
2020/12/05 03:58:30;;;;;;;8.18;7.00;;;1.60;99.60;;;;;;5028963;28;20034;-80
2020/12/05 04:00:55;;;;;;;6.68;5.97;;;1.70;94.50;;;;;;4996226;28;20029;-81
2020/12/05 04:03:21;;;;;;;7.68;6.32;;;1.70;94.40;;;;;;5029926;28;20060;-80
2020/12/05 04:05:46;;;;;;;9.02;7.63;;;1.80;94.50;;;;;;5028879;28;20100;-80
2020/12/05 04:08:12;;;;;;;8.48;7.28;;;;;;;;;;5028437;28;20088;-80
2020/12/05 04:10:38;;;;;;;8.07;6.85;;;1.50;97.60;;;;;;5029866;28;20049;-81
2020/12/05 04:13:04;;;;;;;7.43;6.30;;;1.50;94.30;;;;;;5012003;28;20038;-81
2020/12/05 04:15:29;;;;;;;8.55;6.60;;;3.40;94.80;;;;;;5012115;28;20030;-81
2020/12/05 04:17:55;;;;;;;9.32;7.00;;;2.20;94.60;;;;;;5028253;28;20052;-80
2020/12/05 04:20:21;;;;;;;10.05;7.65;;;;;;;;;;5012071;28;20036;-80
2020/12/05 04:22:47;;;;;;;6.28;5.45;;;1.50;98.00;;;;;;5028250;28;20030;-80
2020/12/05 04:25:12;;;;;;;7.65;6.60;;;2.50;94.80;;;;;;5011658;28;20033;-80
2020/12/05 04:27:38;;;;;;;7.30;6.53;;;;;;;;;;4995370;28;20056;-80
2020/12/05 04:30:04;;;;;;;5.90;5.30;;;1.50;94.20;;;;;;5028035;28;20034;-80
2020/12/05 04:32:30;;;;;;;6.53;5.82;;;;;;;;;;5011816;28;20100;-81
2020/12/05 04:34:56;;;;;;;6.88;6.18;;;1.50;98.20;;;;;;5028969;28;20021;-81
2020/12/05 04:37:23;;;;;;;6.93;5.65;;;3.10;95.00;;;;;;4995332;28;20491;-81
2020/12/05 04:39:48;;;;;;;7.25;5.97;;;3.30;95.00;;;;;;5011763;28;20511;-80
2020/12/05 04:42:15;;;;;;;7.05;5.72;;;1.10;94.40;;;;;;4995174;28;20038;-80
2020/12/05 04:44:41;;;;;;;6.40;5.32;;;;;;;;;;5011524;28;20029;-81
2020/12/05 04:47:07;;;;;;;7.57;6.32;;;1.70;97.60;;;;;;5029093;28;20367;-81
2020/12/05 04:49:32;;;;;;;6.63;5.65;;;3.00;94.50;;;;;;5011288;28;20037;-81
2020/12/05 04:52:10;;;;;;;6.28;5.68;;;2.00;94.30;;;;;;5011145;28;20379;-81
2020/12/05 04:54:35;;;;;;;6.57;5.60;;;2.30;94.50;;;;;;5012778;28;20032;-81
2020/12/05 04:57:01;;;;;;;7.60;4.82;;;;;;;;;;5011422;28;20364;-81
2020/12/05 04:59:27;;;;;;;5.57;3.65;;;1.80;98.10;;;;;;5011427;28;20072;-81
2020/12/05 05:01:52;;;;;;;4.70;3.33;;;2.00;94.70;;;;;;4994846;28;20075;-81
2020/12/05 05:04:18;;;;;;;3.33;2.72;;;2.60;95.10;;;;;;5011276;28;20028;-81
2020/12/05 05:06:44;;;;;;;3.03;2.50;;;1.20;99.90;;;;;;5011143;28;20042;-81
2020/12/05 05:09:11;;;;;;;2.58;2.30;;;3.30;95.40;;;;;;5011198;28;20026;-82
2020/12/05 05:11:39;;;;;;;2.95;2.47;;;1.60;95.10;;;;;;4991891;28;20045;-81
2020/12/05 05:14:13;;;;;;;3.50;2.90;;;3.00;95.60;;;;;;5027535;28;20014;-81
2020/12/05 05:16:39;;;;;;;3.40;2.80;;;2.40;95.40;;;;;;5027888;28;20087;-81
2020/12/05 05:19:19;;;;;;;4.55;2.90;;;2.80;95.30;;;;;;5027585;28;20095;-81
2020/12/05 05:21:45;;;;;;;3.50;3.20;;;;;;;;;;4995238;28;20041;-81
2020/12/05 05:24:17;;;;;;;3.40;3.10;;;1.80;98.10;;;;;;5027633;28;20017;-81
2020/12/05 05:26:43;;;;;;;3.50;3.20;;;;;;;;;;4995058;28;20176;-81
2020/12/05 05:29:25;;;;;;;3.50;2.58;;;1.60;94.70;;;;;;5028786;28;20013;-81
2020/12/05 05:31:58;;;;;;;3.15;2.85;;;2.60;95.90;;;;;;5027834;28;20083;-81
2020/12/05 05:34:24;;;;;;;3.10;2.67;;;1.50;99.90;;;;;;5012522;28;20029;-81
2020/12/05 05:36:50;;;;;;;3.00;2.70;;;1.60;95.70;;;;;;5027593;28;20087;-82
2020/12/05 05:39:17;;;;;;;3.45;3.08;;;2.70;95.70;;;;;;5011251;28;20038;-81
2020/12/05 05:42:00;;;;;;;3.22;2.92;;;2.90;95.60;;;;;;5011408;28;20026;-81
2020/12/05 05:44:27;;;;;;;7.63;5.05;;;;;;;;;;5011234;28;20022;-81
2020/12/05 05:46:53;;;;;;;98.30;46.95;;;1.80;99.90;;;;;;5029531;28;20670;-81
2020/12/05 05:49:29;;;;;;;3.53;2.85;;;1.70;99.90;;;;;;5015157;28;20037;-81
2020/12/05 05:51:55;;;;;;;16.23;9.60;;;3.00;99.90;;;;;;5032687;28;20033;-81
2020/12/05 05:54:22;;;;;;;8.30;5.28;;;3.20;95.20;;;;;;5014783;28;20028;-81
2020/12/05 05:56:56;;;;;;;4.13;3.13;;;3.00;95.10;;;;;;5014377;28;20371;-81
2020/12/05 05:59:21;;;;;;;4.28;3.50;;;1.80;99.90;;;;;;5031283;28;20025;-81
2020/12/05 06:01:49;;;;;;;56.80;33.88;;;2.80;95.20;;;;;;5014789;28;20116;-81
2020/12/05 06:04:17;;;;;;;3.90;3.10;;;3.50;99.90;;;;;;5014374;28;20022;-81
2020/12/05 06:06:43;;;;;;;7.78;6.55;;;3.40;95.00;;;;;;5030930;28;20071;-81
2020/12/05 06:09:08;;;;;;;5.00;4.50;;;2.90;95.00;;;;;;5014412;28;20128;-81
2020/12/05 06:11:34;;;;;;;8.00;6.50;;;1.70;99.90;;;;;;4998070;28;20052;-81
2020/12/05 06:14:02;;;;;;;7.47;5.28;;;1.70;95.10;;;;;;4998375;28;20883;-82
2020/12/05 06:16:28;;;;;;;17.75;11.70;;;2.40;95.00;;;;;;5031055;28;20032;-81
2020/12/05 06:18:56;;;;;;;5.95;4.20;;;1.40;94.80;;;;;;4997987;28;20464;-81
2020/12/05 06:21:23;;;;;;;1.75;1.65;;;1.90;99.90;;;;;;5014104;28;20018;-81
2020/12/05 06:23:51;;;;;;;2.70;2.33;;;1.70;99.90;;;;;;4998473;28;20376;-82
2020/12/05 06:27:23;;;;;;;2.90;2.28;;;4.10;99.90;;;;;;5014420;28;20030;-81
2020/12/05 06:29:48;;;;;;;2.13;1.92;;;1.80;99.90;;;;;;5030941;28;20128;-81
2020/12/05 06:32:37;;;;;;;4.35;3.95;;;1.90;94.60;;;;;;5014766;28;20116;-82
2020/12/05 06:35:03;;;;;;;4.35;3.95;;;1.80;94.60;;;;;;5031951;28;20035;-80
2020/12/05 06:37:35;;;;;;;10.80;5.68;;;1.60;98.70;;;;;;5014316;28;20116;-82
2020/12/05 06:40:03;;;;;;;33.42;15.75;;;3.90;99.90;;;;;;5014145;28;20038;-81
2020/12/05 06:42:29;;;;;;;20.65;12.93;;;2.40;94.90;;;;;;4996859;28;20068;-82
2020/12/05 06:44:55;;;;;;;7.88;6.32;;;1.80;99.90;;;;;;5013371;28;20057;-81
2020/12/05 06:47:24;;;;;;;10.77;8.35;;;1.50;99.90;;;;;;4997587;28;20021;-83
2020/12/05 06:49:50;;;;;;;6.30;5.20;;;1.80;99.90;;;;;;5013945;28;20662;-81
2020/12/05 06:52:22;;;;;;;4.07;3.00;;;2.50;94.90;;;;;;5013938;28;20036;-83
2020/12/05 06:54:55;;;;;;;4.05;3.65;;;1.90;95.20;;;;;;5030074;28;20478;-84
2020/12/05 06:57:22;;;;;;;19.33;12.23;;;2.60;95.00;;;;;;5013753;28;20464;-79
2020/12/05 06:59:48;;;;;;;13.68;10.40;;;2.60;94.80;;;;;;4981668;28;20112;-81
2020/12/05 07:02:30;;;;;;;5.53;4.50;;;2.00;94.40;;;;;;4997565;28;20120;-82
2020/12/05 07:05:21;;;;;;;4.60;4.00;;;2.70;95.00;;;;;;5030023;28;20033;-80
2020/12/05 07:07:54;;;;;;;5.15;3.80;;;1.40;94.50;;;;;;5030409;28;20029;-82
2020/12/05 07:10:41;;;;;;;4.60;3.72;;;1.40;99.90;;;;;;5014418;28;20068;-79
2020/12/05 07:13:23;;;;;;;6.20;4.97;;;3.50;99.90;;;;;;5029408;28;20391;-81
2020/12/05 07:15:49;;;;;;;6.07;3.92;;;1.40;95.00;;;;;;5014197;28;20355;-79
2020/12/05 07:18:25;;;;;;;4.18;3.30;;;1.90;95.60;;;;;;5029628;28;20108;-79
2020/12/05 07:20:51;;;;;;;4.88;3.70;;;1.40;95.20;;;;;;4998188;28;20119;-83
2020/12/05 07:23:17;;;;;;;4.55;3.90;;;1.60;99.90;;;;;;5013340;28;20030;-81
2020/12/05 07:25:43;;;;;;;4.90;3.38;;;3.60;96.10;;;;;;5013179;28;20075;-81
2020/12/05 07:28:08;;;;;;;5.22;3.30;;;3.30;95.70;;;;;;5012806;28;20434;-85
2020/12/05 07:30:34;;;;;;;4.93;3.95;;;3.40;95.70;;;;;;4996766;28;20038;-79
2020/12/05 07:33:00;;;;;;;31.63;19.75;;;;;;;;;;5029482;28;20083;-81
2020/12/05 07:35:25;;;;;;;3.25;2.92;;;1.30;99.00;;;;;;5013089;28;20033;-81
2020/12/05 07:37:51;;;;;;;11.10;8.82;;;2.70;95.20;;;;;;5029698;28;20036;-79
2020/12/05 07:40:26;;;;;;;6.05;4.80;;;1.40;94.90;;;;;;5030512;28;20033;-79
2020/12/05 07:42:51;;;;;;;5.20;4.05;;;1.60;94.90;;;;;;5012860;28;20087;-79
2020/12/05 07:45:17;;;;;;;9.45;6.90;;;1.70;99.90;;;;;;5012672;28;20418;-79
2020/12/05 07:47:42;;;;;;;7.97;4.78;;;2.70;99.90;;;;;;5029030;28;20041;-81
2020/12/05 07:50:09;;;;;;;4.32;3.92;;;2.40;95.30;;;;;;5012630;28;20564;-79
2020/12/05 07:52:37;;;;;;;4.05;3.08;;;2.30;95.10;;;;;;5012103;28;20021;-78
2020/12/05 07:55:04;;;;;;;3.35;2.88;;;1.70;99.90;;;;;;5028584;28;20598;-79
2020/12/05 07:57:30;;;;;;;3.30;2.97;;;1.70;99.90;;;;;;4995450;28;20041;-78
2020/12/05 08:00:01;;;;;;;4.90;3.53;;;3.10;95.00;;;;;;5012369;28;20112;-80
2020/12/05 08:02:50;;;;;;;6.30;5.15;;;1.70;99.90;;;;;;5012353;28;20033;-80
2020/12/05 08:05:54;;;;;;;7.40;5.05;;;3.30;95.50;;;;;;4996466;28;20040;-79
2020/12/05 08:08:20;;;;;;;6.55;5.13;;;2.30;99.90;;;;;;5012093;28;20087;-78
2020/12/05 08:10:46;;;;;;;10.15;6.82;;;2.20;94.70;;;;;;4995680;28;20041;-76
2020/12/05 08:13:29;;;;;;;8.88;6.90;;;2.30;94.00;;;;;;5011383;28;20025;-76
2020/12/05 08:16:05;;;;;;;9.35;7.95;;;3.40;93.30;;;;;;5030045;28;20061;-78
2020/12/05 08:18:33;;;;;;;10.52;8.30;;;2.80;92.60;;;;;;5012018;28;20032;-79
2020/12/05 08:21:00;;;;;;;9.82;7.40;;;2.50;92.50;;;;;;5012056;28;20059;-80
2020/12/05 08:23:31;;;;;;;9.13;7.38;;;2.50;97.70;;;;;;4995005;28;20034;-78
2020/12/05 08:26:05;;;;;;;13.88;8.15;;;2.20;96.30;;;;;;5012467;28;20025;-80
2020/12/05 08:28:35;;;;;;;9.00;7.38;;;2.40;92.50;;;;;;5028078;28;20050;-79
2020/12/05 08:31:05;;;;;;;25.50;7.13;;;2.30;92.60;;;;;;5012600;28;20040;-80
2020/12/05 08:33:31;;;;;;;18.65;7.07;;;3.10;92.70;;;;;;4995719;28;20591;-83
2020/12/05 08:35:57;;;;;;;11.48;6.22;;;2.50;99.50;;;;;;5012081;28;20412;-81
2020/12/05 08:38:24;;;;;;;10.63;5.50;;;3.00;92.70;;;;;;5029799;28;20732;-81
2020/12/05 08:41:02;;;;;;;7.20;5.15;;;2.40;92.70;;;;;;5011985;28;20037;-80
2020/12/05 08:43:27;;;;;;;16.88;5.80;;;2.70;92.80;;;;;;5028364;28;20387;-82
2020/12/05 08:45:53;;;;;;;6.43;4.97;;;2.30;92.70;;;;;;5011516;28;20040;-80
2020/12/05 08:48:19;;;;;;;7.50;6.20;;;;;;;;;;4995162;28;20033;-80
2020/12/05 08:50:46;;;;;;;8.32;7.35;;;2.40;95.00;;;;;;5028054;28;20045;-78
2020/12/05 08:53:12;;;;;;;11.07;6.82;;;3.50;92.80;;;;;;5028005;28;20025;-80
2020/12/05 08:55:43;;;;;;;11.63;5.80;;;3.00;92.50;;;;;;4995063;28;20376;-80
2020/12/05 08:58:09;;;;;;;9.18;5.38;;;2.20;92.30;;;;;;5029348;28;20479;-79
2020/12/05 09:00:35;;;;;;;11.45;5.53;;;2.50;99.90;;;;;;5011664;28;20175;-79
2020/12/05 09:03:02;;;;;;;9.25;5.60;;;;;;;;;;4995579;28;20025;-76
2020/12/05 09:05:28;;;;;;;6.30;5.18;;;2.40;92.60;;;;;;5019136;28;20026;-78
2020/12/05 09:07:58;;;;;;;4.97;4.07;;;3.10;93.30;;;;;;5010563;28;20041;-79
2020/12/05 09:10:25;;;;;;;9.10;6.70;;;2.50;92.90;;;;;;4995402;28;20049;-79
2020/12/05 09:12:50;;;;;;;11.57;8.95;;;2.50;99.90;;;;;;5011775;28;20494;-79
2020/12/05 09:15:16;;;;;;;11.98;6.55;;;2.30;92.70;;;;;;5011739;28;20140;-79
2020/12/05 09:17:42;;;;;;;8.23;6.55;;;2.70;92.80;;;;;;5011644;28;20018;-80
2020/12/05 09:20:20;;;;;;;9.77;7.03;;;3.90;93.20;;;;;;5012657;28;20069;-82
2020/12/05 09:22:47;;;;;;;9.35;5.72;;;2.60;92.70;;;;;;5031565;28;20064;-79
2020/12/05 09:25:24;;;;;;;11.07;5.75;;;2.70;98.70;;;;;;5032006;28;20029;-80
2020/12/05 09:27:50;;;;;;;5.85;4.95;;;3.70;92.90;;;;;;5014851;28;20045;-82
2020/12/05 09:30:15;;;;;;;11.43;6.55;;;3.80;93.10;;;;;;5031449;28;20053;-83
2020/12/05 09:32:45;;;;;;;25.08;14.90;;;3.80;93.40;;;;;;5031650;28;20026;-76
2020/12/05 09:35:12;;;;;;;46.33;25.35;;;2.80;92.60;;;;;;5031748;28;20025;-80
2020/12/05 09:37:38;;;;;;;18.25;12.55;;;;;;;;;;5015361;28;20108;-82
2020/12/05 09:40:05;;;;;;;9.85;8.27;;;3.00;92.00;;;;;;5031981;28;20174;-82
2020/12/05 09:42:30;;;;;;;34.38;12.07;;;3.70;92.50;;;;;;5015126;28;20048;-84
2020/12/05 09:44:56;;;;;;;9.50;6.75;;;3.50;92.00;;;;;;5014977;28;20464;-79
2020/12/05 09:47:22;;;;;;;6.90;5.70;;;3.10;91.80;;;;;;5032964;28;20079;-79
2020/12/05 09:49:48;;;;;;;7.65;5.45;;;;;;;;;;5031321;28;20126;-80
2020/12/05 09:52:13;;;;;;;6.72;5.68;;;3.00;94.20;;;;;;5031530;28;20116;-80
2020/12/05 09:54:39;;;;;;;7.18;5.43;;;3.20;92.20;;;;;;5031542;28;20075;-81
2020/12/05 09:57:04;;;;;;;9.18;5.38;;;4.10;92.40;;;;;;5013666;28;20025;-80
2020/12/05 09:59:30;;;;;;;7.15;4.75;;;3.00;94.10;;;;;;5011786;28;20025;-82
2020/12/05 10:01:56;;;;;;;13.00;5.65;;;;;;;;;;5012244;28;20036;-80
2020/12/05 10:04:22;;;;;;;5.57;4.95;;;3.10;95.70;;;;;;5029828;28;20021;-80
2020/12/05 10:06:48;;;;;;;5.50;4.85;;;3.10;92.60;;;;;;5030117;28;20028;-80
2020/12/05 10:09:13;;;;;;;5.88;4.82;;;3.30;92.40;;;;;;5030696;28;20021;-79
2020/12/05 10:11:39;;;;;;;6.50;5.38;;;3.80;92.30;;;;;;5029408;28;20116;-81
2020/12/05 10:14:05;;;;;;;8.75;6.22;;;2.70;99.90;;;;;;5030471;28;20055;-79
2020/12/05 10:16:32;;;;;;;12.38;8.52;;;3.30;96.60;;;;;;4992807;28;20037;-80
2020/12/05 10:18:58;;;;;;;25.65;11.82;;;3.00;91.80;;;;;;4996194;28;20479;-82
2020/12/05 10:21:23;;;;;;;14.88;9.32;;;3.90;92.40;;;;;;5029192;28;20021;-79
2020/12/05 10:23:49;;;;;;;19.48;9.80;;;3.10;92.00;;;;;;5029522;28;20032;-79
2020/12/05 10:26:15;;;;;;;14.85;8.90;;;;;;;;;;5029406;28;20033;-79
2020/12/05 10:28:40;;;;;;;17.10;6.32;;;3.10;95.30;;;;;;5024267;28;20060;-79
2020/12/05 10:31:06;;;;;;;15.50;7.47;;;4.50;92.30;;;;;;5030062;28;20029;-78
2020/12/05 10:33:32;;;;;;;10.25;7.07;;;3.80;92.00;;;;;;5012279;28;20018;-80
2020/12/05 10:35:57;;;;;;;12.68;7.20;;;3.40;91.90;;;;;;5031145;28;20029;-78
2020/12/05 10:38:23;;;;;;;12.98;7.05;;;;;;;;;;5013563;28;20360;-78
2020/12/05 10:40:49;;;;;;;9.98;6.30;;;3.50;95.20;;;;;;5029921;28;20025;-79
2020/12/05 10:43:18;;;;;;;8.45;6.75;;;4.40;92.20;;;;;;5030846;28;20037;-79
2020/12/05 10:46:22;;;;;;;11.10;6.70;;;3.50;92.30;;;;;;4998141;28;20022;-78
2020/12/05 10:48:48;;;;;;;11.77;5.90;;;3.60;91.50;;;;;;5013373;28;20025;-79
2020/12/05 10:51:13;;;;;;;13.02;6.10;;;4.10;91.60;;;;;;5013552;28;20120;-81
2020/12/05 10:53:39;;;;;;;7.70;6.00;;;3.80;99.90;;;;;;5013575;28;20046;-79
2020/12/05 10:56:04;;;;;;;9.73;6.13;;;3.80;96.30;;;;;;4997086;28;20033;-80
2020/12/05 10:58:30;;;;;;;9.82;6.78;;;3.70;91.40;;;;;;5014984;28;20026;-80
2020/12/05 11:00:56;;;;;;;7.78;5.18;;;3.80;91.50;;;;;;4996972;28;20583;-79
2020/12/05 11:03:22;;;;;;;5.65;4.57;;;3.80;97.10;;;;;;4997974;28;20025;-80
2020/12/05 11:05:47;;;;;;;5.25;4.75;;;4.10;91.40;;;;;;5012606;28;20026;-79
2020/12/05 11:08:13;;;;;;;6.32;4.93;;;3.90;91.10;;;;;;5012009;28;20033;-80
2020/12/05 11:10:39;;;;;;;8.00;5.93;;;4.00;91.10;;;;;;4986315;28;20135;-79
2020/12/05 11:13:04;;;;;;;7.93;5.88;;;4.70;91.40;;;;;;5013629;28;20026;-79
2020/12/05 11:15:30;;;;;;;13.18;7.70;;;4.00;91.00;;;;;;5012688;28;20045;-78
2020/12/05 11:17:55;;;;;;;9.27;7.63;;;4.10;91.00;;;;;;5014201;28;20017;-79
2020/12/05 11:20:22;;;;;;;8.43;7.10;;;4.20;91.20;;;;;;5013165;28;20092;-80
2020/12/05 11:22:48;;;;;;;10.18;7.57;;;4.30;99.90;;;;;;5026816;28;20025;-84
2020/12/05 11:25:13;;;;;;;7.20;5.95;;;3.70;99.90;;;;;;5031605;28;20032;-82
2020/12/05 11:27:39;;;;;;;7.30;5.57;;;4.60;96.00;;;;;;5030956;28;20053;-79
2020/12/05 11:30:05;;;;;;;7.10;5.38;;;4.20;91.10;;;;;;5015517;28;20418;-78
2020/12/05 11:32:31;;;;;;;6.38;5.07;;;3.90;91.00;;;;;;5032170;28;20014;-78
2020/12/05 11:34:56;;;;;;;7.85;5.65;;;3.90;98.80;;;;;;5032245;28;20021;-78
2020/12/05 11:37:22;;;;;;;6.95;6.20;;;4.00;91.20;;;;;;5033534;28;20400;-79
2020/12/05 11:39:48;;;;;;;10.10;7.10;;;4.80;96.70;;;;;;5032167;28;20103;-80
2020/12/05 11:42:13;;;;;;;9.27;8.30;;;4.10;91.30;;;;;;5032446;28;20033;-79
2020/12/05 11:44:39;;;;;;;20.17;7.55;;;4.10;91.20;;;;;;5032350;28;20021;-78
2020/12/05 11:47:04;;;;;;;14.38;7.82;;;4.00;99.90;;;;;;5033765;28;20072;-80
2020/12/05 11:49:30;;;;;;;10.95;6.50;;;5.10;94.30;;;;;;5032440;28;20022;-78
2020/12/05 11:51:57;;;;;;;11.55;7.47;;;4.60;94.20;;;;;;5032472;28;20022;-79
2020/12/05 11:54:23;;;;;;;11.05;6.80;;;4.80;92.30;;;;;;5033418;28;20041;-81
2020/12/05 11:56:49;;;;;;;16.60;9.57;;;4.80;91.40;;;;;;5015802;28;20364;-79
2020/12/05 11:59:15;;;;;;;13.18;8.32;;;4.80;99.90;;;;;;5032260;28;20021;-80
2020/12/05 12:01:41;;;;;;;10.45;7.28;;;4.60;90.80;;;;;;5032414;28;20029;-78
2020/12/05 12:04:07;;;;;;;12.40;6.78;;;4.40;97.40;;;;;;5030972;28;20032;-78
2020/12/05 12:06:33;;;;;;;7.85;5.72;;;5.40;90.90;;;;;;5022976;28;20025;-79
2020/12/05 12:08:58;;;;;;;9.32;6.35;;;4.70;90.50;;;;;;5019626;28;20028;-81
2020/12/05 12:11:24;;;;;;;7.13;5.90;;;4.50;99.90;;;;;;5031766;28;20036;-82
2020/12/05 12:13:49;;;;;;;7.20;5.70;;;4.80;90.30;;;;;;5003346;28;20030;-81
2020/12/05 12:16:15;;;;;;;14.00;9.90;;;5.10;97.80;;;;;;4994636;28;20025;-81
2020/12/05 12:18:41;;;;;;;8.93;6.75;;;;;;;;;;5010824;28;20022;-82
2020/12/05 12:21:07;;;;;;;8.63;7.55;;;5.10;87.80;;;;;;5011564;28;20141;-82
2020/12/05 12:23:32;;;;;;;9.25;6.63;;;5.30;99.90;;;;;;5042533;28;20459;-82
2020/12/05 12:25:58;;;;;;;6.93;5.40;;;5.40;89.70;;;;;;5012282;28;20028;-83
2020/12/05 12:28:24;;;;;;;5.80;4.57;;;5.90;88.20;;;;;;5012136;28;20038;-80
2020/12/05 12:30:50;;;;;;;6.05;4.93;;;5.60;88.10;;;;;;5012185;28;20049;-79
2020/12/05 12:33:16;;;;;;;7.10;5.65;;;5.50;87.70;;;;;;5012377;28;20054;-81
2020/12/05 12:35:44;;;;;;;9.85;7.00;;;5.20;99.90;;;;;;5012154;28;20030;-80
2020/12/05 12:38:10;;;;;;;10.10;6.63;;;5.50;87.10;;;;;;5012291;28;20342;-79
2020/12/05 12:40:35;;;;;;;6.53;5.78;;;5.50;87.70;;;;;;5012013;28;20029;-78
2020/12/05 12:43:01;;;;;;;6.18;5.57;;;5.70;87.70;;;;;;5012013;28;20441;-80
2020/12/05 12:45:31;;;;;;;5.72;5.05;;;6.30;87.10;;;;;;4995704;28;20028;-79
2020/12/05 12:48:39;;;;;;;6.88;4.75;;;5.50;99.90;;;;;;5011939;28;20022;-78
2020/12/05 12:50:45;;;;;;;4.60;3.83;;;5.40;85.50;;;;;;5011865;28;20527;-79
2020/12/05 12:53:14;;;;;;;4.88;4.03;;;5.40;85.20;;;;;;5011824;28;20041;-79
2020/12/05 12:55:39;;;;;;;5.38;4.85;;;5.30;85.80;;;;;;5011868;28;20342;-77
2020/12/05 12:58:15;;;;;;;4.55;3.83;;;5.20;86.60;;;;;;5012070;28;20156;-77
2020/12/05 13:00:41;;;;;;;5.03;4.53;;;5.50;99.90;;;;;;5012071;28;20021;-78
2020/12/05 13:03:07;;;;;;;9.52;5.38;;;5.10;85.30;;;;;;5013211;28;20095;-78